Penticton Airport
CYYF : rendu visible

Aérodrome :











RETROUVEZ-NOUS SUR...

 
LOGIN :

S'inscrire | Disclaimer

   EN    FR    IT 

 









Légende :    VFR   VFR Marginal   IFR   IFR Intensif   IFR Très Intensif
Visi : 
Plafond : 
>= 8 km
>= 3000ft
5 à 8 km
1000 à 3000 ft
1500m à 5 km
500 à 1000 ft
800 à 1500m
200 à 500 ft
< 800m
< 200 ft
Symboles :   Orages  Brouillard  Fortes neiges  Fortes précipitations  Vent > 20 kt






- Altitude de l'aérodrome : 1129 ft
- Code IATA : YYF


CYYF - Penticton

DERNIER METAR :
  • 241500Z VRB03KT 15SM SCT055 BKN110 01/M01 A3026 RMK CF4AC3 SH E SLP264

METARs EXPIRÉS :
  • 241400Z 00000KT 15SM FEW026 BKN063 OVC110 02/00 A3025 RMK SC2SC4AC2 SLP255
  • 241300Z 28003KT 15SM FEW028 BKN064 OVC100 02/M00 A3022 RMK SC2SC4AC2 SLP248

TAF TAF CYYF
Valide du 24 à 13h jusqu'au 25 à 01h UTC


241247Z 2413/2501 36005KT P6SM BKN050 OVC090
FM241500 35010KT P6SM SCT050
TEMPO 2415/2501 BKN050 RMK NXT FCST BY 241900Z



MET'MAP, la Météo Aéronautique d'un coup d'oeil ! - Copyright ORBIFLY Décembre 2007 - Disclaimer

ORBIFLY MET'MAP TEAM :

Programmation & Développement : Alexandra Zaïnal
Sur une idée originale de : Baudouin d'Aumeries
Assistance à la programmation : Marc-Olivier Méhu
Soutien technique & logistique : Manuel Goepfert

Contact : metmap@orbifly.com




SOURCES & CREDITS :

   NOAA       Earth
Advisory